Flight Track Log - Related Links

Times and Time Zones

All times are in EDT time to prevent confusion due to time zone crossing. See the SWA398 flight status page for this flight to view local times or setup timezone preferences in your user account.

Time Position Orientation Groundspeed Altitude Reporting Facility
EDT Latitude Longitude Course Direction KTS MPH feet Rate Location/Type
Thu 07:50:31 AM 29.5222 -98.4592 129° Southeast 158 182 1,600  Level Houston Center
Thu 07:50:50 AM 29.5128 -98.4458 129° Southeast 154 177 2,300 1,810 Climbing Houston Center
Thu 07:51:34 AM 29.4917 -98.4142 127° Southeast 178 205 3,500 2,400 Climbing Houston Center
Thu 07:52:35 AM 29.5228 -98.3453 63° Northeast 245 282 6,500 2,927 Climbing Houston Center
Thu 07:53:37 AM 29.5969 -98.3386 North 285 328 9,500 2,634 Climbing Houston Center
Thu 07:54:38 AM 29.6819 -98.3464 355° North 309 356 11,900 2,508 Climbing Houston Center
Thu 07:55:39 AM 29.7839 -98.3614 353° North 342 394 14,600 2,656 Climbing Houston Center
Thu 07:56:40 AM 29.8797 -98.4075 337° Northwest 372 428 17,300 2,508 Climbing Houston Center
Thu 07:57:41 AM 29.9772 -98.4639 333° Northwest 407 468 19,700 2,585 Climbing Houston Center
Thu 07:58:43 AM 30.0856 -98.5219 335° Northwest 395 455 22,600 2,780 Climbing Houston Center
Thu 07:59:44 AM 30.1869 -98.5778 335° Northwest 401 461 25,400 2,213 Climbing Houston Center
Thu 08:00:45 AM 30.2900 -98.6342 335° Northwest 409 471 27,100 1,525 Climbing Houston Center
Thu 08:01:46 AM 30.3919 -98.6900 335° Northwest 426 490 28,500 1,415 Climbing Houston Center
Thu 08:02:48 AM 30.5050 -98.7508 335° Northwest 441 507 30,000 1,707 Climbing Houston Center
Thu 08:03:49 AM 30.6206 -98.8153 334° Northwest 453 521 32,000 1,918 Climbing Houston Center
Thu 08:04:50 AM 30.7317 -98.8767 335° Northwest 442 509 33,900 1,820 Climbing Houston Center
Thu 08:05:51 AM 30.8417 -98.9372 335° Northwest 434 499 35,700 1,707 Climbing Houston Center
Thu 08:06:53 AM 30.9478 -98.9961 335° Northwest 423 487 37,400 1,122 Climbing Houston Center
Thu 08:07:54 AM 31.0508 -99.0539 334° Northwest 410 472 38,000 293 Climbing Houston Center
Thu 08:08:56 AM 31.1536 -99.1114 334° Northwest 405 466 38,000  Level Houston Center
Thu 08:09:57 AM 31.2750 -99.1778 335° Northwest 407 468 38,000  Level Houston Center
Thu 08:10:58 AM 31.3781 -99.2361 334° Northwest 408 470 38,000  Level Houston Center
Thu 08:12:00 AM 31.4828 -99.2944 335° Northwest 409 471 38,000  Level Houston Center
Thu 08:13:01 AM 31.5858 -99.3528 334° Northwest 407 468 38,000  Level Houston Center
Thu 08:14:01 AM 31.6756 -99.4028 335° Northwest 401 461 38,000  Level Fort Worth Center
Thu 08:15:01 AM 31.7747 -99.4611 333° Northwest 401 461 38,000  Level Fort Worth Center
Thu 08:16:01 AM 31.8761 -99.5197 334° Northwest 401 461 38,000  Level Fort Worth Center
Thu 08:17:01 AM 31.9775 -99.5758 335° Northwest 401 461 38,000  Level Fort Worth Center
Thu 08:18:01 AM 32.0789 -99.6322 335° Northwest 401 461 38,000  Level Fort Worth Center
Thu 08:19:01 AM 32.1800 -99.6911 334° Northwest 401 461 38,000  Level Fort Worth Center
Thu 08:20:01 AM 32.2814 -99.7503 334° Northwest 401 461 38,000  Level Fort Worth Center
Thu 08:21:01 AM 32.3928 -99.8147 334° Northwest 401 461 38,000  Level Fort Worth Center
Thu 08:22:01 AM 32.4939 -99.8739 334° Northwest 401 461 38,000  Level Fort Worth Center
Thu 08:23:01 AM 32.5786 -99.9183 336° Northwest 401 461 38,000  Level Fort Worth Center
Thu 08:24:01 AM 32.7069 -99.9811 338° Northwest 414 476 38,000  Level Fort Worth Center
Thu 08:25:01 AM 32.8142 -100.0386 336° Northwest 414 476 38,000  Level Fort Worth Center
Thu 08:26:01 AM 32.9194 -100.0911 337° Northwest 414 476 38,000  Level Fort Worth Center
Thu 08:27:01 AM 33.0247 -100.1439 337° Northwest 414 476 38,000  Level Fort Worth Center
Thu 08:28:01 AM 33.1178 -100.1939 336° Northwest 409 471 38,000  Level Fort Worth Center
Thu 08:29:01 AM 33.2208 -100.2467 337° Northwest 409 471 38,000  Level Fort Worth Center
Thu 08:30:01 AM 33.3239 -100.3022 336° Northwest 404 465 38,000  Level Fort Worth Center
Thu 08:31:01 AM 33.4250 -100.3553 336° Northwest 404 465 38,000  Level Fort Worth Center
Thu 08:32:01 AM 33.5281 -100.4086 337° Northwest 398 458 38,000  Level Fort Worth Center
Thu 08:33:01 AM 33.6292 -100.4619 336° Northwest 398 458 38,000  Level Fort Worth Center
Thu 08:34:01 AM 33.7342 -100.5181 336° Northwest 398 458 38,000  Level Fort Worth Center
Thu 08:35:01 AM 33.8350 -100.5692 337° Northwest 398 458 38,000  Level Fort Worth Center
Thu 08:36:01 AM 33.9378 -100.6281 335° Northwest 398 458 38,000  Level Fort Worth Center
Thu 08:37:01 AM 34.0408 -100.6819 337° Northwest 398 458 38,000  Level Fort Worth Center
Thu 08:38:01 AM 34.1561 -100.7389 338° Northwest 398 458 38,000  Level Fort Worth Center
Thu 08:39:01 AM 34.2569 -100.7956 335° Northwest 398 458 38,000  Level Fort Worth Center
Thu 08:40:13 AM 34.3853 -100.8653 336° Northwest 406 467 38,000  Level Albuquerque Center
Thu 08:41:14 AM 34.4894 -100.9217 336° Northwest 409 471 38,000  Level Albuquerque Center
Thu 08:42:14 AM 34.5944 -100.9783 336° Northwest 412 474 38,000  Level Albuquerque Center
Thu 08:43:15 AM 34.6994 -101.0353 336° Northwest 414 476 38,000  Level Albuquerque Center
Thu 08:44:15 AM 34.8044 -101.0908 337° Northwest 413 475 38,000  Level Albuquerque Center
Thu 08:45:16 AM 34.9083 -101.1478 336° Northwest 412 474 38,000  Level Albuquerque Center
Thu 08:46:16 AM 35.0119 -101.2053 336° Northwest 411 473 38,000  Level Albuquerque Center
Thu 08:47:17 AM 35.1153 -101.2611 336° Northwest 410 472 38,000  Level Albuquerque Center
Thu 08:48:18 AM 35.2275 -101.3242 335° Northwest 410 472 38,000  Level Albuquerque Center
Thu 08:49:18 AM 35.3164 -101.3719 336° Northwest 415 478 38,000  Level Albuquerque Center
Thu 08:50:19 AM 35.4217 -101.4308 335° Northwest 415 478 38,000  Level Albuquerque Center
Thu 08:51:19 AM 35.5239 -101.4947 333° Northwest 408 470 38,000  Level Albuquerque Center
Thu 08:52:20 AM 35.6228 -101.5575 333° Northwest 403 464 38,000  Level Albuquerque Center
Thu 08:53:20 AM 35.7422 -101.6336 333° Northwest 405 466 38,000  Level Albuquerque Center
Thu 08:54:21 AM 35.8406 -101.6953 333° Northwest 402 463 38,000  Level Albuquerque Center
Thu 08:55:22 AM 35.9419 -101.7581 333° Northwest 406 467 38,000  Level Albuquerque Center
Thu 08:56:22 AM 36.0419 -101.8217 333° Northwest 406 467 38,000  Level Albuquerque Center
Thu 08:57:23 AM 36.1431 -101.8867 333° Northwest 408 470 38,000  Level Albuquerque Center
Thu 08:58:24 AM 36.2439 -101.9514 333° Northwest 410 472 38,000  Level Albuquerque Center
Thu 08:59:24 AM 36.3453 -102.0147 333° Northwest 409 471 38,000  Level Albuquerque Center
Thu 09:00:25 AM 36.4467 -102.0803 333° Northwest 410 472 38,000  Level Albuquerque Center
Thu 09:01:25 AM 36.5469 -102.1453 332° Northwest 408 470 38,000  Level Albuquerque Center
Thu 09:02:26 AM 36.6517 -102.2114 333° Northwest 407 468 38,000  Level Albuquerque Center
Thu 09:03:27 AM 36.7475 -102.2753 332° Northwest 406 467 38,000  Level Albuquerque Center
Thu 09:04:27 AM 36.8475 -102.3403 333° Northwest 407 468 38,000  Level Albuquerque Center
Thu 09:05:28 AM 36.9583 -102.4114 333° Northwest 411 473 38,000  Level Albuquerque Center
Thu 09:06:29 AM 37.0567 -102.4747 333° Northwest 414 476 38,000  Level Albuquerque Center
Thu 09:07:29 AM 37.1567 -102.5411 332° Northwest 410 472 38,000  Level Albuquerque Center
Thu 09:08:30 AM 37.2722 -102.6169 332° Northwest 417 480 38,000  Level Albuquerque Center
Thu 09:09:31 AM 37.3706 -102.6817 332° Northwest 417 480 38,000  Level Albuquerque Center
Thu 09:10:01 AM 37.4197 -102.7139 333° Northwest 419 482 38,000  Level Denver Center
Thu 09:11:02 AM 37.5183 -102.7783 333° Northwest 418 481 38,000  Level Denver Center
Thu 09:12:03 AM 37.6481 -102.8208 345° North 430 495 38,000  Level Denver Center
Thu 09:13:04 AM 37.7589 -102.8558 346° North 431 496 38,000  Level Denver Center
Thu 09:14:05 AM 37.8881 -102.8964 346° North 429 494 38,000  Level Denver Center
Thu 09:15:07 AM 38.0003 -102.9308 346° North 432 497 38,000  Level Denver Center
Thu 09:16:08 AM 38.1114 -102.9664 346° North 432 497 38,000  Level Denver Center
Thu 09:17:09 AM 38.2397 -103.0086 346° North 430 495 38,000  Level Denver Center
Thu 09:18:10 AM 38.3506 -103.0439 346° North 428 493 38,000 -197 Level Denver Center
Thu 09:19:11 AM 38.4817 -103.0861 346° North 430 495 37,600 -639 Descending Denver Center
Thu 09:20:12 AM 38.5789 -103.1592 330° Northwest 433 498 36,700 -934 Descending Denver Center
Thu 09:21:13 AM 38.6561 -103.2650 313° West 427 491 35,700 -1,328 Descending Denver Center
Thu 09:22:14 AM 38.7450 -103.3925 312° West 429 494 34,000 -836 Descending Denver Center
Thu 09:23:15 AM 38.8225 -103.4994 313° West 429 494 34,000 -1,180 Level Denver Center
Thu 09:24:16 AM 38.8994 -103.6106 312° West 434 499 31,600 -2,557 Descending Denver Center
Thu 09:25:17 AM 38.9911 -103.7383 313° West 435 501 28,800 -2,852 Descending Denver Center
Thu 09:26:18 AM 39.0711 -103.8531 312° West 445 512 25,800 -2,705 Descending Denver Center
Thu 09:27:19 AM 39.1625 -103.9831 312° West 440 506 23,300 -2,115 Descending Denver Center
Thu 09:28:20 AM 39.2350 -104.0911 311° West 425 489 21,500 -1,230 Descending Denver Center
Thu 09:29:21 AM 39.3153 -104.1747 321° Northwest 369 425 20,800 -1,131 Descending Denver Center
Thu 09:30:22 AM 39.4086 -104.2486 329° Northwest 365 420 19,200 -1,475 Descending Denver Center
Thu 09:31:23 AM 39.4875 -104.3333 320° Northwest 372 428 17,800 -2,016 Descending Denver Center
Thu 09:32:24 AM 39.5714 -104.4158 323° Northwest 378 435 15,100 -2,361 Descending Denver Center
Thu 09:33:25 AM 39.6522 -104.4989 322° Northwest 372 428 13,000 -2,016 Descending Denver Center
Thu 09:34:26 AM 39.7311 -104.5864 320° Northwest 373 429 11,000 -984 Descending Denver Center
Thu 09:35:27 AM 39.7419 -104.7075 277° West 311 358 11,000 -341 Level Denver Center
Thu 09:36:29 AM 39.7464 -104.8044 273° West 270 311 10,300 -927 Descending Denver Center
Thu 09:37:30 AM 39.7633 -104.8908 284° West 260 299 9,100 -1,574 Descending Denver Center
Thu 09:38:31 AM 39.8300 -104.8678 15° North 258 297 7,100 -1,230 Descending Denver Center
Thu 09:39:32 AM 39.8408 -104.7969 79° East 204 235 6,600 -738 Descending Denver Center
Thu 09:40:33 AM 39.8408 -104.7389 90° East 157 181 5,600 -639 Descending Denver Center
Thu 09:41:34 AM 39.8414 -104.6928 89° East 147 169 5,300 -295 Descending Denver Center
Thu 09:43:00 AM 39.8617 -104.6732 North  Level Estimated
Thu 09:50:00 AM 39.8617 -104.6732 North  Level Estimated
Thu 09:51:00 AM 39.8617 -104.6732 North  Level Estimated

Login

Don't have an account? Register now (free) for customized features, flight alerts, and more!